Etusivu
METAR-TAF:

METAR-TAF

Lentoasemat :

Schwäbisch Hall, Saksa

Leveyspiiri: 49-07-06N, Pituuspiiri: 9-47-02E, korkeus merenpinnasta: 398 m

Tämänhetkinen sää

Tämä raportti tehtiin 10 tuntia ja 27 minuuttia sitten, kello 16.50 UTC
Tuuli 7 kn idästä/kaakosta, vaihdellen idän ja etelän/kaakon välillä
Lämpötila -1°C
Kosteus 64%
Ilmanpaine 1022 hPa
Näkyvyys 10 km tai enemmän
Pilvistä 2400 ft:n korkeudessa

METAR: EDTY 151650Z 12007KT 090V150 9999 OVC024 M01/M07 Q1022

Aika: 04:17 (03:17 UTC)

Sääennuste

Tämä raportti tehtiin 10 tuntia ja 17 minuuttia sitten, kello 17.00 UTC
Ennuste voimassa 15. päivästä klo 18 UTC - 16. päivään klo 03 UTC
Tuuli 6 kn idästä/kaakosta
Näkyvyys 10 km tai enemmän
Hajonneita pilviä 2500 ft:n korkeudessa

TAF: EDTY 151700Z 1518/1603 11006KT 9999 BKN025

Säähavainnot ja -ennusteet yli 4000 lentoasemalta (METAR- ja TAF-raportit).

Käytössä olevat sääasemat on merkitty karttaan keltaisilla ja punaisilla pisteillä.

Aseta hiiri pisteen päälle nähdäksesi sääaseman nimen.

Klikkaa sitten nähdäksesi säähavainnot ja -ennusteet.

Kartan vaihtaminen: klikkaa mustalla rastilla varustettuja vihreitä pisteitä, niin voit zoomata sisään; viivalla varustettua vihreää pistettä, niin voit zoomata ulos tai vihreitä nuolia, niin pääset viereisille kartoille.


METAR-TAF: